sensor_id;sensor_type;location;lat;lon;timestamp;P1;durP1;ratioP1;P2;durP2;ratioP2
43519;SDS011;46848;51.980;5.918;2022-09-13T00:01:55;13.60;;;8.98;;
43519;SDS011;46848;51.980;5.918;2022-09-13T00:04:21;8.93;;;8.02;;
43519;SDS011;46848;51.980;5.918;2022-09-13T00:06:46;9.00;;;7.95;;
43519;SDS011;46848;51.980;5.918;2022-09-13T00:09:12;15.27;;;12.90;;
43519;SDS011;46848;51.980;5.918;2022-09-13T00:11:38;18.40;;;15.10;;
43519;SDS011;46848;51.980;5.918;2022-09-13T00:14:03;14.90;;;12.65;;
43519;SDS011;46848;51.980;5.918;2022-09-13T00:16:29;13.02;;;9.93;;
43519;SDS011;46848;51.980;5.918;2022-09-13T00:18:55;10.07;;;8.25;;
43519;SDS011;46848;51.980;5.918;2022-09-13T00:21:21;11.77;;;7.72;;
43519;SDS011;46848;51.980;5.918;2022-09-13T00:23:49;9.32;;;8.07;;
43519;SDS011;46848;51.980;5.918;2022-09-13T00:26:17;9.70;;;7.25;;
43519;SDS011;46848;51.980;5.918;2022-09-13T00:28:47;8.45;;;7.25;;
43519;SDS011;46848;51.980;5.918;2022-09-13T00:31:17;9.38;;;7.53;;
43519;SDS011;46848;51.980;5.918;2022-09-13T00:33:43;10.02;;;7.72;;
43519;SDS011;46848;51.980;5.918;2022-09-13T00:36:09;12.10;;;8.90;;
43519;SDS011;46848;51.980;5.918;2022-09-13T00:38:36;12.23;;;9.25;;
43519;SDS011;46848;51.980;5.918;2022-09-13T00:41:03;17.65;;;11.57;;
43519;SDS011;46848;51.980;5.918;2022-09-13T00:44:04;10.55;;;8.80;;
43519;SDS011;46848;51.980;5.918;2022-09-13T00:46:35;9.15;;;7.93;;
43519;SDS011;46848;51.980;5.918;2022-09-13T00:49:21;12.07;;;7.32;;
43519;SDS011;46848;51.980;5.918;2022-09-13T00:52:00;9.82;;;7.05;;
43519;SDS011;46848;51.980;5.918;2022-09-13T00:54:37;9.25;;;7.07;;
43519;SDS011;46848;51.980;5.918;2022-09-13T00:57:09;9.57;;;6.78;;
43519;SDS011;46848;51.980;5.918;2022-09-13T00:59:44;7.78;;;6.32;;
43519;SDS011;46848;51.980;5.918;2022-09-13T01:02:17;8.20;;;6.53;;
43519;SDS011;46848;51.980;5.918;2022-09-13T01:04:44;8.13;;;6.75;;
43519;SDS011;46848;51.980;5.918;2022-09-13T01:07:10;10.05;;;6.95;;
43519;SDS011;46848;51.980;5.918;2022-09-13T01:09:40;7.30;;;6.53;;
43519;SDS011;46848;51.980;5.918;2022-09-13T01:15:00;8.40;;;7.10;;
43519;SDS011;46848;51.980;5.918;2022-09-13T01:17:29;9.38;;;7.22;;
43519;SDS011;46848;51.980;5.918;2022-09-13T01:19:57;9.50;;;7.32;;
43519;SDS011;46848;51.980;5.918;2022-09-13T01:36:23;9.88;;;7.53;;
43519;SDS011;46848;51.980;5.918;2022-09-13T01:48:25;9.68;;;7.07;;
43519;SDS011;46848;51.980;5.918;2022-09-13T01:55:59;6.68;;;5.65;;
43519;SDS011;46848;51.980;5.918;2022-09-13T01:58:45;10.23;;;6.97;;
43519;SDS011;46848;51.980;5.918;2022-09-13T02:03:52;10.13;;;7.22;;
43519;SDS011;46848;51.980;5.918;2022-09-13T02:06:33;8.43;;;6.68;;
43519;SDS011;46848;51.980;5.918;2022-09-13T02:09:08;8.93;;;7.63;;
43519;SDS011;46848;51.980;5.918;2022-09-13T02:11:38;11.23;;;7.18;;
43519;SDS011;46848;51.980;5.918;2022-09-13T02:14:17;10.82;;;8.20;;
43519;SDS011;46848;51.980;5.918;2022-09-13T02:16:48;7.45;;;6.65;;
43519;SDS011;46848;51.980;5.918;2022-09-13T02:19:18;8.55;;;6.53;;
43519;SDS011;46848;51.980;5.918;2022-09-13T02:21:55;10.80;;;7.70;;
43519;SDS011;46848;51.980;5.918;2022-09-13T02:24:41;10.38;;;7.45;;
43519;SDS011;46848;51.980;5.918;2022-09-13T02:27:12;8.18;;;7.03;;
43519;SDS011;46848;51.980;5.918;2022-09-13T02:29:44;8.00;;;6.50;;
43519;SDS011;46848;51.980;5.918;2022-09-13T02:34:53;8.15;;;6.82;;
43519;SDS011;46848;51.980;5.918;2022-09-13T02:37:28;9.23;;;7.07;;
43519;SDS011;46848;51.980;5.918;2022-09-13T02:39:58;10.18;;;7.25;;
43519;SDS011;46848;51.980;5.918;2022-09-13T02:42:30;9.82;;;7.30;;
43519;SDS011;46848;51.980;5.918;2022-09-13T02:45:01;8.50;;;7.43;;
43519;SDS011;46848;51.980;5.918;2022-09-13T03:01:04;11.52;;;7.60;;
43519;SDS011;46848;51.980;5.918;2022-09-13T03:03:29;9.60;;;7.68;;
43519;SDS011;46848;51.980;5.918;2022-09-13T03:05:55;8.32;;;7.47;;
43519;SDS011;46848;51.980;5.918;2022-09-13T03:08:21;8.00;;;6.82;;
43519;SDS011;46848;51.980;5.918;2022-09-13T03:10:56;10.10;;;7.53;;
43519;SDS011;46848;51.980;5.918;2022-09-13T03:16:31;9.10;;;6.13;;
43519;SDS011;46848;51.980;5.918;2022-09-13T03:22:12;7.65;;;6.28;;
43519;SDS011;46848;51.980;5.918;2022-09-13T03:30:49;7.50;;;6.28;;
43519;SDS011;46848;51.980;5.918;2022-09-13T03:33:28;10.88;;;6.50;;
43519;SDS011;46848;51.980;5.918;2022-09-13T03:36:04;6.95;;;5.53;;
43519;SDS011;46848;51.980;5.918;2022-09-13T03:41:36;8.18;;;6.55;;
43519;SDS011;46848;51.980;5.918;2022-09-13T03:44:09;8.27;;;6.07;;
43519;SDS011;46848;51.980;5.918;2022-09-13T03:46:45;10.38;;;6.68;;
43519;SDS011;46848;51.980;5.918;2022-09-13T03:49:14;8.35;;;6.75;;
43519;SDS011;46848;51.980;5.918;2022-09-13T03:51:42;9.98;;;6.75;;
43519;SDS011;46848;51.980;5.918;2022-09-13T03:54:11;7.78;;;6.57;;
43519;SDS011;46848;51.980;5.918;2022-09-13T03:57:04;7.72;;;6.32;;
43519;SDS011;46848;51.980;5.918;2022-09-13T03:59:42;42.67;;;33.47;;
43519;SDS011;46848;51.980;5.918;2022-09-13T04:02:14;84.60;;;67.63;;
43519;SDS011;46848;51.980;5.918;2022-09-13T04:04:40;79.55;;;65.13;;
43519;SDS011;46848;51.980;5.918;2022-09-13T04:07:07;46.70;;;37.42;;
43519;SDS011;46848;51.980;5.918;2022-09-13T04:09:34;45.10;;;35.92;;
43519;SDS011;46848;51.980;5.918;2022-09-13T04:12:00;34.03;;;28.42;;
43519;SDS011;46848;51.980;5.918;2022-09-13T04:14:26;35.83;;;28.17;;
43519;SDS011;46848;51.980;5.918;2022-09-13T04:16:52;32.78;;;25.08;;
43519;SDS011;46848;51.980;5.918;2022-09-13T04:19:19;28.55;;;22.23;;
43519;SDS011;46848;51.980;5.918;2022-09-13T04:21:49;24.88;;;19.40;;
43519;SDS011;46848;51.980;5.918;2022-09-13T04:24:15;27.67;;;22.50;;
43519;SDS011;46848;51.980;5.918;2022-09-13T04:26:42;24.70;;;19.38;;
43519;SDS011;46848;51.980;5.918;2022-09-13T04:29:09;20.20;;;16.27;;
43519;SDS011;46848;51.980;5.918;2022-09-13T04:31:35;18.67;;;13.32;;
43519;SDS011;46848;51.980;5.918;2022-09-13T04:34:01;15.20;;;11.05;;
43519;SDS011;46848;51.980;5.918;2022-09-13T04:36:27;16.02;;;10.68;;
43519;SDS011;46848;51.980;5.918;2022-09-13T04:38:53;12.52;;;10.88;;
43519;SDS011;46848;51.980;5.918;2022-09-13T04:41:19;14.48;;;10.40;;
43519;SDS011;46848;51.980;5.918;2022-09-13T04:43:47;13.15;;;9.65;;
43519;SDS011;46848;51.980;5.918;2022-09-13T04:46:16;13.80;;;10.10;;
43519;SDS011;46848;51.980;5.918;2022-09-13T04:48:42;20.33;;;16.08;;
43519;SDS011;46848;51.980;5.918;2022-09-13T04:51:15;28.33;;;20.55;;
43519;SDS011;46848;51.980;5.918;2022-09-13T04:53:42;20.30;;;14.88;;
43519;SDS011;46848;51.980;5.918;2022-09-13T04:56:09;16.83;;;12.23;;
43519;SDS011;46848;51.980;5.918;2022-09-13T04:58:36;14.45;;;11.35;;
43519;SDS011;46848;51.980;5.918;2022-09-13T05:01:02;13.60;;;10.40;;
43519;SDS011;46848;51.980;5.918;2022-09-13T05:03:30;12.15;;;9.85;;
43519;SDS011;46848;51.980;5.918;2022-09-13T05:08:33;12.65;;;9.88;;
43519;SDS011;46848;51.980;5.918;2022-09-13T05:10:58;12.20;;;10.18;;
43519;SDS011;46848;51.980;5.918;2022-09-13T05:13:24;11.80;;;10.13;;
43519;SDS011;46848;51.980;5.918;2022-09-13T05:15:57;37.42;;;26.92;;
43519;SDS011;46848;51.980;5.918;2022-09-13T05:18:30;34.50;;;24.38;;
43519;SDS011;46848;51.980;5.918;2022-09-13T05:20:57;26.55;;;17.92;;
43519;SDS011;46848;51.980;5.918;2022-09-13T05:23:25;17.27;;;14.02;;
43519;SDS011;46848;51.980;5.918;2022-09-13T05:25:58;17.38;;;12.73;;
43519;SDS011;46848;51.980;5.918;2022-09-13T05:28:26;13.98;;;11.32;;
43519;SDS011;46848;51.980;5.918;2022-09-13T05:30:57;14.75;;;11.43;;
43519;SDS011;46848;51.980;5.918;2022-09-13T05:33:25;15.65;;;10.80;;
43519;SDS011;46848;51.980;5.918;2022-09-13T05:35:52;18.40;;;14.90;;
43519;SDS011;46848;51.980;5.918;2022-09-13T05:38:18;33.70;;;24.70;;
43519;SDS011;46848;51.980;5.918;2022-09-13T05:40:45;22.05;;;17.42;;
43519;SDS011;46848;51.980;5.918;2022-09-13T05:43:11;19.00;;;15.48;;
43519;SDS011;46848;51.980;5.918;2022-09-13T05:45:37;14.55;;;12.27;;
43519;SDS011;46848;51.980;5.918;2022-09-13T05:48:02;17.73;;;12.43;;
43519;SDS011;46848;51.980;5.918;2022-09-13T05:50:28;13.23;;;11.18;;
43519;SDS011;46848;51.980;5.918;2022-09-13T05:52:54;15.32;;;11.00;;
43519;SDS011;46848;51.980;5.918;2022-09-13T05:55:20;13.15;;;9.95;;
43519;SDS011;46848;51.980;5.918;2022-09-13T05:57:47;14.07;;;11.27;;
43519;SDS011;46848;51.980;5.918;2022-09-13T06:00:13;11.60;;;9.60;;
43519;SDS011;46848;51.980;5.918;2022-09-13T06:02:39;13.18;;;10.20;;
43519;SDS011;46848;51.980;5.918;2022-09-13T06:05:06;12.10;;;10.82;;
43519;SDS011;46848;51.980;5.918;2022-09-13T06:07:34;12.43;;;9.82;;
43519;SDS011;46848;51.980;5.918;2022-09-13T06:09:59;12.30;;;10.00;;
43519;SDS011;46848;51.980;5.918;2022-09-13T06:12:25;11.75;;;8.88;;
43519;SDS011;46848;51.980;5.918;2022-09-13T06:14:51;12.88;;;10.30;;
43519;SDS011;46848;51.980;5.918;2022-09-13T06:17:16;13.88;;;9.75;;
43519;SDS011;46848;51.980;5.918;2022-09-13T06:19:42;15.15;;;10.40;;
43519;SDS011;46848;51.980;5.918;2022-09-13T06:22:08;11.93;;;9.25;;
43519;SDS011;46848;51.980;5.918;2022-09-13T06:24:34;13.27;;;9.90;;
43519;SDS011;46848;51.980;5.918;2022-09-13T06:27:01;18.30;;;11.20;;
43519;SDS011;46848;51.980;5.918;2022-09-13T06:29:27;13.15;;;10.15;;
43519;SDS011;46848;51.980;5.918;2022-09-13T06:31:53;14.90;;;10.60;;
43519;SDS011;46848;51.980;5.918;2022-09-13T06:34:19;12.70;;;10.30;;
43519;SDS011;46848;51.980;5.918;2022-09-13T06:36:44;23.52;;;16.60;;
43519;SDS011;46848;51.980;5.918;2022-09-13T06:39:10;25.25;;;16.50;;
43519;SDS011;46848;51.980;5.918;2022-09-13T06:41:36;27.45;;;19.85;;
43519;SDS011;46848;51.980;5.918;2022-09-13T06:44:02;22.52;;;16.17;;
43519;SDS011;46848;51.980;5.918;2022-09-13T06:46:29;18.05;;;14.73;;
43519;SDS011;46848;51.980;5.918;2022-09-13T06:49:05;23.33;;;16.90;;
43519;SDS011;46848;51.980;5.918;2022-09-13T06:51:33;37.55;;;22.08;;
43519;SDS011;46848;51.980;5.918;2022-09-13T06:53:59;38.97;;;24.88;;
43519;SDS011;46848;51.980;5.918;2022-09-13T06:56:31;27.20;;;18.38;;
43519;SDS011;46848;51.980;5.918;2022-09-13T06:59:00;25.00;;;15.68;;
43519;SDS011;46848;51.980;5.918;2022-09-13T07:01:29;30.02;;;21.60;;
43519;SDS011;46848;51.980;5.918;2022-09-13T07:04:00;42.90;;;29.38;;
43519;SDS011;46848;51.980;5.918;2022-09-13T07:06:28;29.35;;;22.48;;
43519;SDS011;46848;51.980;5.918;2022-09-13T07:08:57;27.65;;;20.60;;
43519;SDS011;46848;51.980;5.918;2022-09-13T07:11:25;25.92;;;18.40;;
43519;SDS011;46848;51.980;5.918;2022-09-13T07:13:54;20.65;;;16.30;;
43519;SDS011;46848;51.980;5.918;2022-09-13T07:16:21;20.08;;;16.13;;
43519;SDS011;46848;51.980;5.918;2022-09-13T07:21:21;18.88;;;14.10;;
43519;SDS011;46848;51.980;5.918;2022-09-13T07:23:48;17.15;;;13.45;;
43519;SDS011;46848;51.980;5.918;2022-09-13T07:26:15;17.92;;;13.15;;
43519;SDS011;46848;51.980;5.918;2022-09-13T07:28:41;20.02;;;13.27;;
43519;SDS011;46848;51.980;5.918;2022-09-13T07:31:10;18.00;;;13.35;;
43519;SDS011;46848;51.980;5.918;2022-09-13T07:33:38;18.40;;;12.95;;
43519;SDS011;46848;51.980;5.918;2022-09-13T07:36:06;15.30;;;12.43;;
43519;SDS011;46848;51.980;5.918;2022-09-13T07:38:35;16.92;;;12.38;;
43519;SDS011;46848;51.980;5.918;2022-09-13T07:41:11;17.17;;;12.25;;
43519;SDS011;46848;51.980;5.918;2022-09-13T07:43:39;25.42;;;18.60;;
43519;SDS011;46848;51.980;5.918;2022-09-13T07:46:05;17.95;;;14.20;;
43519;SDS011;46848;51.980;5.918;2022-09-13T07:48:32;20.70;;;13.63;;
43519;SDS011;46848;51.980;5.918;2022-09-13T07:51:04;17.10;;;12.18;;
43519;SDS011;46848;51.980;5.918;2022-09-13T07:53:31;12.80;;;9.90;;
43519;SDS011;46848;51.980;5.918;2022-09-13T07:56:08;20.70;;;15.63;;
43519;SDS011;46848;51.980;5.918;2022-09-13T07:58:38;24.10;;;17.05;;
43519;SDS011;46848;51.980;5.918;2022-09-13T08:01:24;20.83;;;13.52;;
43519;SDS011;46848;51.980;5.918;2022-09-13T08:03:54;15.07;;;9.55;;
43519;SDS011;46848;51.980;5.918;2022-09-13T08:06:22;15.43;;;11.18;;
43519;SDS011;46848;51.980;5.918;2022-09-13T08:08:49;14.93;;;10.30;;
43519;SDS011;46848;51.980;5.918;2022-09-13T08:11:19;11.63;;;8.05;;
43519;SDS011;46848;51.980;5.918;2022-09-13T08:13:46;10.20;;;6.68;;
43519;SDS011;46848;51.980;5.918;2022-09-13T08:16:13;7.72;;;5.55;;
43519;SDS011;46848;51.980;5.918;2022-09-13T08:18:44;9.02;;;4.65;;
43519;SDS011;46848;51.980;5.918;2022-09-13T08:21:11;8.73;;;4.97;;
43519;SDS011;46848;51.980;5.918;2022-09-13T08:23:37;7.50;;;5.15;;
43519;SDS011;46848;51.980;5.918;2022-09-13T08:26:03;7.40;;;5.32;;
43519;SDS011;46848;51.980;5.918;2022-09-13T08:28:30;10.75;;;6.43;;
43519;SDS011;46848;51.980;5.918;2022-09-13T08:31:02;7.10;;;5.18;;
43519;SDS011;46848;51.980;5.918;2022-09-13T08:33:41;8.98;;;5.03;;
43519;SDS011;46848;51.980;5.918;2022-09-13T08:36:08;11.63;;;5.82;;
43519;SDS011;46848;51.980;5.918;2022-09-13T08:38:34;8.27;;;5.18;;
43519;SDS011;46848;51.980;5.918;2022-09-13T08:41:03;8.50;;;5.40;;
43519;SDS011;46848;51.980;5.918;2022-09-13T08:43:47;11.55;;;6.43;;
43519;SDS011;46848;51.980;5.918;2022-09-13T08:46:25;10.20;;;7.68;;
43519;SDS011;46848;51.980;5.918;2022-09-13T08:49:04;11.50;;;7.90;;
43519;SDS011;46848;51.980;5.918;2022-09-13T08:51:36;14.55;;;8.80;;
43519;SDS011;46848;51.980;5.918;2022-09-13T08:54:16;12.77;;;8.07;;
43519;SDS011;46848;51.980;5.918;2022-09-13T09:05:05;10.07;;;6.97;;
43519;SDS011;46848;51.980;5.918;2022-09-13T09:07:41;8.82;;;5.88;;
43519;SDS011;46848;51.980;5.918;2022-09-13T09:10:15;8.35;;;6.20;;
43519;SDS011;46848;51.980;5.918;2022-09-13T09:15:20;10.60;;;6.95;;
43519;SDS011;46848;51.980;5.918;2022-09-13T09:17:56;10.00;;;7.30;;
43519;SDS011;46848;51.980;5.918;2022-09-13T09:20:47;9.32;;;6.95;;
43519;SDS011;46848;51.980;5.918;2022-09-13T09:23:14;9.73;;;6.07;;
43519;SDS011;46848;51.980;5.918;2022-09-13T09:25:44;7.93;;;5.65;;
43519;SDS011;46848;51.980;5.918;2022-09-13T09:28:14;11.60;;;5.88;;
43519;SDS011;46848;51.980;5.918;2022-09-13T09:39:12;8.73;;;5.45;;
43519;SDS011;46848;51.980;5.918;2022-09-13T09:41:40;8.30;;;5.43;;
43519;SDS011;46848;51.980;5.918;2022-09-13T09:46:49;8.05;;;4.90;;
43519;SDS011;46848;51.980;5.918;2022-09-13T09:52:14;7.38;;;3.90;;
43519;SDS011;46848;51.980;5.918;2022-09-13T09:54:46;6.95;;;4.22;;
43519;SDS011;46848;51.980;5.918;2022-09-13T09:57:14;6.28;;;4.20;;
43519;SDS011;46848;51.980;5.918;2022-09-13T09:59:42;4.88;;;3.30;;
43519;SDS011;46848;51.980;5.918;2022-09-13T10:02:15;5.40;;;3.60;;
43519;SDS011;46848;51.980;5.918;2022-09-13T10:04:52;7.25;;;3.65;;
43519;SDS011;46848;51.980;5.918;2022-09-13T10:07:26;5.40;;;3.72;;
43519;SDS011;46848;51.980;5.918;2022-09-13T10:12:50;5.10;;;2.90;;
43519;SDS011;46848;51.980;5.918;2022-09-13T10:15:19;5.28;;;2.63;;
43519;SDS011;46848;51.980;5.918;2022-09-13T10:17:59;5.32;;;2.55;;
43519;SDS011;46848;51.980;5.918;2022-09-13T10:20:27;6.65;;;3.40;;
43519;SDS011;46848;51.980;5.918;2022-09-13T10:25:38;4.57;;;2.75;;
43519;SDS011;46848;51.980;5.918;2022-09-13T10:28:04;8.30;;;2.90;;
43519;SDS011;46848;51.980;5.918;2022-09-13T10:30:45;3.92;;;2.47;;
43519;SDS011;46848;51.980;5.918;2022-09-13T10:33:22;4.80;;;2.67;;
43519;SDS011;46848;51.980;5.918;2022-09-13T10:36:04;3.97;;;2.55;;
43519;SDS011;46848;51.980;5.918;2022-09-13T10:39:02;5.63;;;2.75;;
43519;SDS011;46848;51.980;5.918;2022-09-13T10:41:38;6.30;;;5.15;;
43519;SDS011;46848;51.980;5.918;2022-09-13T10:44:25;4.60;;;3.53;;
43519;SDS011;46848;51.980;5.918;2022-09-13T10:47:09;5.97;;;3.58;;
43519;SDS011;46848;51.980;5.918;2022-09-13T10:49:57;4.10;;;2.80;;
43519;SDS011;46848;51.980;5.918;2022-09-13T10:52:41;4.10;;;2.47;;
43519;SDS011;46848;51.980;5.918;2022-09-13T10:57:43;4.05;;;2.63;;
43519;SDS011;46848;51.980;5.918;2022-09-13T11:00:10;2.92;;;1.95;;
43519;SDS011;46848;51.980;5.918;2022-09-13T11:30:08;13.00;;;10.10;;
43519;SDS011;46848;51.980;5.918;2022-09-13T11:32:50;8.07;;;5.80;;
43519;SDS011;46848;51.980;5.918;2022-09-13T11:55:14;4.10;;;1.85;;
43519;SDS011;46848;51.980;5.918;2022-09-13T11:57:48;4.95;;;2.15;;
43519;SDS011;46848;51.980;5.918;2022-09-13T12:00:23;3.85;;;2.10;;
43519;SDS011;46848;51.980;5.918;2022-09-13T12:05:43;2.55;;;1.10;;
43519;SDS011;46848;51.980;5.918;2022-09-13T12:13:49;2.30;;;0.77;;
43519;SDS011;46848;51.980;5.918;2022-09-13T12:16:21;2.38;;;0.98;;
43519;SDS011;46848;51.980;5.918;2022-09-13T12:18:52;2.03;;;0.90;;
43519;SDS011;46848;51.980;5.918;2022-09-13T12:21:24;2.83;;;1.42;;
43519;SDS011;46848;51.980;5.918;2022-09-13T12:23:59;3.38;;;1.40;;
43519;SDS011;46848;51.980;5.918;2022-09-13T12:26:52;3.87;;;1.77;;
43519;SDS011;46848;51.980;5.918;2022-09-13T12:32:18;3.63;;;1.35;;
43519;SDS011;46848;51.980;5.918;2022-09-13T12:43:17;5.10;;;1.65;;
43519;SDS011;46848;51.980;5.918;2022-09-13T12:46:27;2.80;;;0.70;;
43519;SDS011;46848;51.980;5.918;2022-09-13T12:49:18;3.30;;;1.40;;
43519;SDS011;46848;51.980;5.918;2022-09-13T13:00:29;4.75;;;1.67;;
43519;SDS011;46848;51.980;5.918;2022-09-13T13:03:03;5.72;;;2.78;;
43519;SDS011;46848;51.980;5.918;2022-09-13T13:16:25;2.30;;;1.35;;
43519;SDS011;46848;51.980;5.918;2022-09-13T13:18:59;3.22;;;1.08;;
43519;SDS011;46848;51.980;5.918;2022-09-13T13:21:30;1.67;;;0.90;;
43519;SDS011;46848;51.980;5.918;2022-09-13T13:26:47;36.83;;;24.15;;
43519;SDS011;46848;51.980;5.918;2022-09-13T13:36:47;5.45;;;2.95;;
43519;SDS011;46848;51.980;5.918;2022-09-13T13:39:33;5.15;;;2.33;;
43519;SDS011;46848;51.980;5.918;2022-09-13T13:42:09;3.03;;;1.50;;
43519;SDS011;46848;51.980;5.918;2022-09-13T13:52:53;3.85;;;1.23;;
43519;SDS011;46848;51.980;5.918;2022-09-13T14:00:58;2.30;;;0.85;;
43519;SDS011;46848;51.980;5.918;2022-09-13T14:03:48;2.17;;;1.17;;
43519;SDS011;46848;51.980;5.918;2022-09-13T14:06:16;3.20;;;1.08;;
43519;SDS011;46848;51.980;5.918;2022-09-13T14:09:00;2.10;;;0.88;;
43519;SDS011;46848;51.980;5.918;2022-09-13T14:24:44;1.75;;;0.70;;
43519;SDS011;46848;51.980;5.918;2022-09-13T14:27:36;2.03;;;0.68;;
43519;SDS011;46848;51.980;5.918;2022-09-13T14:30:04;19.55;;;13.98;;
43519;SDS011;46848;51.980;5.918;2022-09-13T14:32:52;7.32;;;4.30;;
43519;SDS011;46848;51.980;5.918;2022-09-13T14:35:27;8.25;;;2.92;;
43519;SDS011;46848;51.980;5.918;2022-09-13T14:37:55;3.50;;;1.75;;
43519;SDS011;46848;51.980;5.918;2022-09-13T14:40:34;3.13;;;1.50;;
43519;SDS011;46848;51.980;5.918;2022-09-13T14:43:01;2.38;;;1.20;;
43519;SDS011;46848;51.980;5.918;2022-09-13T14:45:43;3.10;;;1.10;;
43519;SDS011;46848;51.980;5.918;2022-09-13T14:48:17;3.45;;;0.90;;
43519;SDS011;46848;51.980;5.918;2022-09-13T14:50:50;3.88;;;0.70;;
43519;SDS011;46848;51.980;5.918;2022-09-13T14:53:21;4.13;;;0.95;;
43519;SDS011;46848;51.980;5.918;2022-09-13T14:56:10;2.03;;;1.00;;
43519;SDS011;46848;51.980;5.918;2022-09-13T14:58:48;1.95;;;0.93;;
43519;SDS011;46848;51.980;5.918;2022-09-13T15:01:18;7.35;;;0.93;;
43519;SDS011;46848;51.980;5.918;2022-09-13T15:03:51;3.83;;;0.90;;
43519;SDS011;46848;51.980;5.918;2022-09-13T15:06:22;2.05;;;0.68;;
43519;SDS011;46848;51.980;5.918;2022-09-13T15:08:51;2.50;;;0.73;;
43519;SDS011;46848;51.980;5.918;2022-09-13T15:11:32;2.28;;;0.90;;
43519;SDS011;46848;51.980;5.918;2022-09-13T15:17:28;6.13;;;1.65;;
43519;SDS011;46848;51.980;5.918;2022-09-13T15:19:41;6.13;;;2.03;;
43519;SDS011;46848;51.980;5.918;2022-09-13T15:24:37;4.97;;;2.53;;
43519;SDS011;46848;51.980;5.918;2022-09-13T15:27:15;4.88;;;1.83;;
43519;SDS011;46848;51.980;5.918;2022-09-13T15:29:56;5.65;;;1.70;;
43519;SDS011;46848;51.980;5.918;2022-09-13T15:32:29;4.07;;;1.88;;
43519;SDS011;46848;51.980;5.918;2022-09-13T15:34:59;3.10;;;1.55;;
43519;SDS011;46848;51.980;5.918;2022-09-13T15:37:43;3.70;;;1.27;;
43519;SDS011;46848;51.980;5.918;2022-09-13T15:42:44;4.35;;;1.92;;
43519;SDS011;46848;51.980;5.918;2022-09-13T15:45:11;7.72;;;3.03;;
43519;SDS011;46848;51.980;5.918;2022-09-13T15:47:37;11.93;;;9.07;;
43519;SDS011;46848;51.980;5.918;2022-09-13T15:50:02;10.45;;;8.15;;
43519;SDS011;46848;51.980;5.918;2022-09-13T15:52:28;5.68;;;3.83;;
43519;SDS011;46848;51.980;5.918;2022-09-13T15:54:55;4.72;;;2.70;;
43519;SDS011;46848;51.980;5.918;2022-09-13T15:57:21;5.28;;;2.60;;
43519;SDS011;46848;51.980;5.918;2022-09-13T15:59:49;4.07;;;2.25;;
43519;SDS011;46848;51.980;5.918;2022-09-13T16:04:49;12.65;;;5.32;;
43519;SDS011;46848;51.980;5.918;2022-09-13T16:07:15;8.30;;;3.47;;
43519;SDS011;46848;51.980;5.918;2022-09-13T16:09:41;5.35;;;2.53;;
43519;SDS011;46848;51.980;5.918;2022-09-13T16:12:07;6.70;;;2.38;;
43519;SDS011;46848;51.980;5.918;2022-09-13T16:14:33;4.95;;;2.03;;
43519;SDS011;46848;51.980;5.918;2022-09-13T16:17:00;10.13;;;6.07;;
43519;SDS011;46848;51.980;5.918;2022-09-13T16:19:31;11.15;;;6.95;;
43519;SDS011;46848;51.980;5.918;2022-09-13T16:21:57;10.10;;;5.40;;
43519;SDS011;46848;51.980;5.918;2022-09-13T16:24:23;6.57;;;3.83;;
43519;SDS011;46848;51.980;5.918;2022-09-13T16:26:48;6.03;;;2.92;;
43519;SDS011;46848;51.980;5.918;2022-09-13T16:29:14;4.90;;;2.55;;
43519;SDS011;46848;51.980;5.918;2022-09-13T16:31:40;4.50;;;2.22;;
43519;SDS011;46848;51.980;5.918;2022-09-13T16:34:05;4.57;;;2.08;;
43519;SDS011;46848;51.980;5.918;2022-09-13T16:36:31;3.22;;;1.25;;
43519;SDS011;46848;51.980;5.918;2022-09-13T16:38:58;4.00;;;0.95;;
43519;SDS011;46848;51.980;5.918;2022-09-13T16:41:24;4.28;;;1.63;;
43519;SDS011;46848;51.980;5.918;2022-09-13T16:43:50;3.58;;;1.63;;
43519;SDS011;46848;51.980;5.918;2022-09-13T16:46:18;4.93;;;1.77;;
43519;SDS011;46848;51.980;5.918;2022-09-13T16:48:44;5.32;;;1.67;;
43519;SDS011;46848;51.980;5.918;2022-09-13T16:51:10;3.90;;;1.30;;
43519;SDS011;46848;51.980;5.918;2022-09-13T16:53:38;19.73;;;13.10;;
43519;SDS011;46848;51.980;5.918;2022-09-13T16:56:10;13.85;;;8.27;;
43519;SDS011;46848;51.980;5.918;2022-09-13T16:58:37;10.18;;;4.30;;
43519;SDS011;46848;51.980;5.918;2022-09-13T17:01:05;6.82;;;3.10;;
43519;SDS011;46848;51.980;5.918;2022-09-13T17:03:32;4.85;;;2.17;;
43519;SDS011;46848;51.980;5.918;2022-09-13T17:06:00;4.07;;;1.50;;
43519;SDS011;46848;51.980;5.918;2022-09-13T17:08:27;6.30;;;2.78;;
43519;SDS011;46848;51.980;5.918;2022-09-13T17:10:54;5.13;;;2.00;;
43519;SDS011;46848;51.980;5.918;2022-09-13T17:13:20;5.65;;;1.80;;
43519;SDS011;46848;51.980;5.918;2022-09-13T17:15:45;4.85;;;1.80;;
43519;SDS011;46848;51.980;5.918;2022-09-13T17:18:11;4.80;;;1.23;;
43519;SDS011;46848;51.980;5.918;2022-09-13T17:20:48;5.30;;;1.50;;
43519;SDS011;46848;51.980;5.918;2022-09-13T17:23:14;3.97;;;1.20;;
43519;SDS011;46848;51.980;5.918;2022-09-13T17:25:41;5.22;;;1.58;;
43519;SDS011;46848;51.980;5.918;2022-09-13T17:28:10;6.20;;;1.20;;
43519;SDS011;46848;51.980;5.918;2022-09-13T17:30:36;18.20;;;11.73;;
43519;SDS011;46848;51.980;5.918;2022-09-13T17:33:03;14.07;;;7.82;;
43519;SDS011;46848;51.980;5.918;2022-09-13T17:35:31;7.55;;;4.15;;
43519;SDS011;46848;51.980;5.918;2022-09-13T17:37:57;5.95;;;2.88;;
43519;SDS011;46848;51.980;5.918;2022-09-13T17:40:24;4.93;;;1.88;;
43519;SDS011;46848;51.980;5.918;2022-09-13T17:42:50;3.25;;;1.10;;
43519;SDS011;46848;51.980;5.918;2022-09-13T17:45:16;2.28;;;0.80;;
43519;SDS011;46848;51.980;5.918;2022-09-13T17:47:43;3.15;;;0.70;;
43519;SDS011;46848;51.980;5.918;2022-09-13T17:50:09;3.25;;;0.85;;
43519;SDS011;46848;51.980;5.918;2022-09-13T17:52:35;2.80;;;0.98;;
43519;SDS011;46848;51.980;5.918;2022-09-13T17:55:01;3.90;;;0.80;;
43519;SDS011;46848;51.980;5.918;2022-09-13T17:57:27;4.25;;;0.98;;
43519;SDS011;46848;51.980;5.918;2022-09-13T17:59:53;4.22;;;1.17;;
43519;SDS011;46848;51.980;5.918;2022-09-13T18:02:19;4.75;;;1.00;;
43519;SDS011;46848;51.980;5.918;2022-09-13T18:04:45;4.40;;;1.25;;
43519;SDS011;46848;51.980;5.918;2022-09-13T18:07:14;3.55;;;1.08;;
43519;SDS011;46848;51.980;5.918;2022-09-13T18:09:40;3.80;;;0.70;;
43519;SDS011;46848;51.980;5.918;2022-09-13T18:12:07;3.00;;;0.75;;
43519;SDS011;46848;51.980;5.918;2022-09-13T18:14:33;2.08;;;0.68;;
43519;SDS011;46848;51.980;5.918;2022-09-13T18:16:59;5.93;;;1.00;;
43519;SDS011;46848;51.980;5.918;2022-09-13T18:19:25;3.22;;;0.80;;
43519;SDS011;46848;51.980;5.918;2022-09-13T18:21:51;2.85;;;0.65;;
43519;SDS011;46848;51.980;5.918;2022-09-13T18:24:17;2.40;;;0.70;;
43519;SDS011;46848;51.980;5.918;2022-09-13T18:26:43;5.32;;;0.80;;
43519;SDS011;46848;51.980;5.918;2022-09-13T18:29:10;3.10;;;0.85;;
43519;SDS011;46848;51.980;5.918;2022-09-13T18:31:37;4.18;;;0.93;;
43519;SDS011;46848;51.980;5.918;2022-09-13T18:34:06;7.38;;;0.88;;
43519;SDS011;46848;51.980;5.918;2022-09-13T18:36:34;5.68;;;1.08;;
43519;SDS011;46848;51.980;5.918;2022-09-13T18:39:01;5.75;;;1.17;;
43519;SDS011;46848;51.980;5.918;2022-09-13T18:41:32;6.85;;;1.70;;
43519;SDS011;46848;51.980;5.918;2022-09-13T18:43:59;5.22;;;1.30;;
43519;SDS011;46848;51.980;5.918;2022-09-13T18:46:26;3.95;;;0.98;;
43519;SDS011;46848;51.980;5.918;2022-09-13T18:48:58;4.88;;;0.93;;
43519;SDS011;46848;51.980;5.918;2022-09-13T18:51:28;2.75;;;1.08;;
43519;SDS011;46848;51.980;5.918;2022-09-13T18:53:56;3.22;;;1.10;;
43519;SDS011;46848;51.980;5.918;2022-09-13T18:56:22;3.75;;;0.90;;